CYBB/YBB METAR and TAF weather

Enter ICAO airport designator
Station Type Date Time Source
CYBB METAR 2018/04/19 13:00 UTC NOAA

CYBB 191300Z 19030G38KT 3SM BLSN SCT013 BKN160 M05/M07 A2970 RMK ST3AC3 SLP059


Station Type Date Time Source
CYBB Decoded METAR 2018/04/19 13:00 UTC NOAA

Pelly Bay Airport, Canada (CYBB) 68-32N 089-49W
Apr 19, 2018 - 09:00 AM EDT / 2018.04.19 1300 UTC
Wind: from the S (190 degrees) at 35 MPH (30 KT) gusting to 44 MPH (38 KT):0
Visibility: 3 mile(s):0
Sky conditions: mostly cloudy
Weather: blowing snow
Temperature: 23 F (-5 C)
Windchill: 5 F (-15 C):1
Dew Point: 19 F (-7 C)
Relative Humidity: 85%
Pressure (altimeter): 29.7 in. Hg (1005 hPa)
ob: CYBB 191300Z 19030G38KT 3SM BLSN SCT013 BKN160 M05/M07 A2970 RMK ST3AC3 SLP059
cycle: 13

Station Type Date Time Source
CYBB TAF 2018/04/18 21:12 UTC NOAA

TAF
AMD TAF
AMD CYBB 182110Z 1821/1823 04015G25KT WS005/15025KT P6SM -SN BKN015 BKN150
TEMPO 1821/1823 11/2SM -SN BLSN VV010
BECMG 1821/1823 14020G30KT
RMK NXT FCST WILL BE ISSUED AT 191345Z


Example: see airport list